This is the latest recevied weather packets stored in our database for station/object N3TTT-13. If no packets are shown the sender has not sent any weather packets the latest 1 day(s).
| Time | Temp. | Humidity | Pressure | Rain* | Wind** | Luminosity | Snow |
|---|---|---|---|---|---|---|---|
| 1778098163 | 21.11° C | 77% | 1008.2 hPa | 0 mm | - | 209 W/m² | - |
| 1778097556 | 21.11° C | 78% | 1008.4 hPa | 0 mm | - | 199 W/m² | - |
| 1778095737 | 21.11° C | 77% | 1008.7 hPa | 0 mm | - | 219 W/m² | - |
| 1778095434 | 21.11° C | 77% | 1008.6 hPa | 0 mm | - | 258 W/m² | - |
| 1778095131 | 21.11° C | 77% | 1008.8 hPa | 0 mm | - | 253 W/m² | - |
| 1778094827 | 21.11° C | 77% | 1008.6 hPa | 0 mm | - | 301 W/m² | - |
| 1778092401 | 20.56° C | 79% | 1009.3 hPa | 0 mm | - | 220 W/m² | - |
| 1778090888 | 20° C | 79% | 1009.4 hPa | 0 mm | - | 276 W/m² | - |
| 1778089372 | 20° C | 81% | 1009.5 hPa | 0 mm | - | 258 W/m² | - |
| 1778088766 | 19.44° C | 82% | 1009.7 hPa | 0 mm | - | 261 W/m² | - |
| 1778087554 | 18.33° C | 86% | 1009.7 hPa | 0 mm | - | 370 W/m² | - |
| 1778086948 | 17.78° C | 87% | 1010 hPa | 0 mm | - | 58 W/m² | - |
| 1778085129 | 17.78° C | 89% | 1010 hPa | 0 mm | - | 218 W/m² | - |
| 1778084523 | 17.78° C | 88% | 1010.2 hPa | 0 mm | - | 111 W/m² | - |
| 1778084220 | 17.78° C | 87% | 1010.2 hPa | 0 mm | - | 135 W/m² | - |
| 1778082706 | 19.44° C | 79% | 1011.2 hPa | 0 mm | - | 127 W/m² | - |
| 1778080054 | 20° C | 76% | 1011.1 hPa | 0 mm | - | 183 W/m² | - |
| 1778077028 | 21.67° C | 69% | 1011.1 hPa | 0 mm | - | 452 W/m² | - |
| 1778076726 | 21.67° C | 68% | 1011.1 hPa | 0 mm | - | 247 W/m² | - |
| 1778076120 | 21.11° C | 69% | 1011.2 hPa | 0 mm | - | 175 W/m² | - |
| 1778075817 | 21.11° C | 69% | 1011.1 hPa | 0 mm | - | 165 W/m² | - |
| 1778075210 | 21.67° C | 67% | 1010.9 hPa | 0 mm | - | 193 W/m² | - |
| 1778074906 | 21.11° C | 69% | 1010.8 hPa | 0 mm | - | 312 W/m² | - |
| 1778074300 | 20.56° C | 70% | 1011.3 hPa | 0 mm | - | 218 W/m² | - |
| 1778073694 | 21.11° C | 70% | 1011 hPa | 0 mm | - | 157 W/m² | - |
* Rain latest hour (hover to see other rain measurements)
** Current wind speed in m/s (hover to see current wind gust speed)